sensor_id;sensor_type;location;lat;lon;timestamp;temperature;humidity
20735;DHT22;10528;52.124;5.196;2023-04-24T00:01:38;12.60;99.90
20735;DHT22;10528;52.124;5.196;2023-04-24T00:04:06;12.10;99.90
20735;DHT22;10528;52.124;5.196;2023-04-24T00:06:33;11.70;99.90
20735;DHT22;10528;52.124;5.196;2023-04-24T00:09:00;11.80;99.90
20735;DHT22;10528;52.124;5.196;2023-04-24T00:11:28;11.70;99.90
20735;DHT22;10528;52.124;5.196;2023-04-24T00:13:56;11.60;99.90
20735;DHT22;10528;52.124;5.196;2023-04-24T00:16:23;11.70;99.90
20735;DHT22;10528;52.124;5.196;2023-04-24T00:18:50;11.80;99.90
20735;DHT22;10528;52.124;5.196;2023-04-24T00:21:19;11.80;99.90
20735;DHT22;10528;52.124;5.196;2023-04-24T00:23:47;11.60;99.90
20735;DHT22;10528;52.124;5.196;2023-04-24T00:26:14;11.50;99.90
20735;DHT22;10528;52.124;5.196;2023-04-24T00:28:41;11.60;99.90
20735;DHT22;10528;52.124;5.196;2023-04-24T00:31:08;11.40;99.90
20735;DHT22;10528;52.124;5.196;2023-04-24T00:33:35;11.90;99.90
20735;DHT22;10528;52.124;5.196;2023-04-24T00:36:02;11.90;99.90
20735;DHT22;10528;52.124;5.196;2023-04-24T00:38:29;11.60;99.90
20735;DHT22;10528;52.124;5.196;2023-04-24T00:40:56;11.90;99.90
20735;DHT22;10528;52.124;5.196;2023-04-24T00:43:23;11.60;99.90
20735;DHT22;10528;52.124;5.196;2023-04-24T00:45:50;11.60;99.90
20735;DHT22;10528;52.124;5.196;2023-04-24T00:48:18;11.40;99.90
20735;DHT22;10528;52.124;5.196;2023-04-24T00:50:46;11.50;99.90
20735;DHT22;10528;52.124;5.196;2023-04-24T00:53:13;11.70;99.90
20735;DHT22;10528;52.124;5.196;2023-04-24T00:55:40;11.70;99.90
20735;DHT22;10528;52.124;5.196;2023-04-24T00:58:07;11.60;99.90
20735;DHT22;10528;52.124;5.196;2023-04-24T01:00:35;11.70;99.90
20735;DHT22;10528;52.124;5.196;2023-04-24T01:03:04;11.50;99.90
20735;DHT22;10528;52.124;5.196;2023-04-24T01:05:32;11.50;99.90
20735;DHT22;10528;52.124;5.196;2023-04-24T01:08:01;11.40;99.90
20735;DHT22;10528;52.124;5.196;2023-04-24T01:10:30;11.40;99.90
20735;DHT22;10528;52.124;5.196;2023-04-24T01:12:59;11.30;99.90
20735;DHT22;10528;52.124;5.196;2023-04-24T01:15:26;11.30;99.90
20735;DHT22;10528;52.124;5.196;2023-04-24T01:17:53;11.40;99.90
20735;DHT22;10528;52.124;5.196;2023-04-24T01:20:20;11.20;99.90
20735;DHT22;10528;52.124;5.196;2023-04-24T01:22:48;11.20;99.90
20735;DHT22;10528;52.124;5.196;2023-04-24T01:25:15;11.10;99.90
20735;DHT22;10528;52.124;5.196;2023-04-24T01:27:42;11.20;99.90
20735;DHT22;10528;52.124;5.196;2023-04-24T01:30:11;11.20;99.90
20735;DHT22;10528;52.124;5.196;2023-04-24T01:32:39;11.50;99.90
20735;DHT22;10528;52.124;5.196;2023-04-24T01:35:07;11.30;99.90
20735;DHT22;10528;52.124;5.196;2023-04-24T01:37:34;11.20;99.90
20735;DHT22;10528;52.124;5.196;2023-04-24T01:40:05;11.20;99.90
20735;DHT22;10528;52.124;5.196;2023-04-24T01:42:34;11.20;99.90
20735;DHT22;10528;52.124;5.196;2023-04-24T01:45:03;11.20;99.90
20735;DHT22;10528;52.124;5.196;2023-04-24T01:47:32;11.00;99.90
20735;DHT22;10528;52.124;5.196;2023-04-24T01:50:00;11.10;99.90
20735;DHT22;10528;52.124;5.196;2023-04-24T01:52:26;11.00;99.90
20735;DHT22;10528;52.124;5.196;2023-04-24T01:54:55;11.00;99.90
20735;DHT22;10528;52.124;5.196;2023-04-24T01:57:22;11.10;99.90
20735;DHT22;10528;52.124;5.196;2023-04-24T01:59:49;11.10;99.90
20735;DHT22;10528;52.124;5.196;2023-04-24T02:02:17;11.10;99.90
20735;DHT22;10528;52.124;5.196;2023-04-24T02:04:44;11.10;99.90
20735;DHT22;10528;52.124;5.196;2023-04-24T02:07:11;11.10;99.90
20735;DHT22;10528;52.124;5.196;2023-04-24T02:09:38;11.10;99.90
20735;DHT22;10528;52.124;5.196;2023-04-24T02:12:06;11.10;99.90
20735;DHT22;10528;52.124;5.196;2023-04-24T02:14:33;11.00;99.90
20735;DHT22;10528;52.124;5.196;2023-04-24T02:16:59;11.10;99.90
20735;DHT22;10528;52.124;5.196;2023-04-24T02:19:27;11.10;99.90
20735;DHT22;10528;52.124;5.196;2023-04-24T02:21:54;11.10;99.90
20735;DHT22;10528;52.124;5.196;2023-04-24T02:24:21;11.20;99.90
20735;DHT22;10528;52.124;5.196;2023-04-24T02:26:48;11.10;99.90
20735;DHT22;10528;52.124;5.196;2023-04-24T02:29:15;11.00;99.90
20735;DHT22;10528;52.124;5.196;2023-04-24T02:31:42;11.00;99.90
20735;DHT22;10528;52.124;5.196;2023-04-24T02:34:09;11.00;99.90
20735;DHT22;10528;52.124;5.196;2023-04-24T02:36:36;11.10;99.90
20735;DHT22;10528;52.124;5.196;2023-04-24T02:39:02;11.10;99.90
20735;DHT22;10528;52.124;5.196;2023-04-24T02:41:31;11.00;99.90
20735;DHT22;10528;52.124;5.196;2023-04-24T02:43:59;11.00;99.90
20735;DHT22;10528;52.124;5.196;2023-04-24T02:46:26;11.00;99.90
20735;DHT22;10528;52.124;5.196;2023-04-24T02:48:53;10.90;99.90
20735;DHT22;10528;52.124;5.196;2023-04-24T02:51:20;11.00;99.90
20735;DHT22;10528;52.124;5.196;2023-04-24T02:53:47;10.90;99.90
20735;DHT22;10528;52.124;5.196;2023-04-24T02:56:14;11.00;99.90
20735;DHT22;10528;52.124;5.196;2023-04-24T02:58:41;11.20;99.90
20735;DHT22;10528;52.124;5.196;2023-04-24T03:01:09;10.90;99.90
20735;DHT22;10528;52.124;5.196;2023-04-24T03:03:38;10.90;99.90
20735;DHT22;10528;52.124;5.196;2023-04-24T03:06:06;10.90;99.90
20735;DHT22;10528;52.124;5.196;2023-04-24T03:08:34;10.90;99.90
20735;DHT22;10528;52.124;5.196;2023-04-24T03:11:02;10.80;99.90
20735;DHT22;10528;52.124;5.196;2023-04-24T03:13:29;10.80;99.90
20735;DHT22;10528;52.124;5.196;2023-04-24T03:15:56;10.70;99.90
20735;DHT22;10528;52.124;5.196;2023-04-24T03:18:23;10.90;99.90
20735;DHT22;10528;52.124;5.196;2023-04-24T03:20:51;10.80;99.90
20735;DHT22;10528;52.124;5.196;2023-04-24T03:23:18;10.80;99.90
20735;DHT22;10528;52.124;5.196;2023-04-24T03:25:45;10.80;99.90
20735;DHT22;10528;52.124;5.196;2023-04-24T03:28:12;10.80;99.90
20735;DHT22;10528;52.124;5.196;2023-04-24T03:30:47;10.70;99.90
20735;DHT22;10528;52.124;5.196;2023-04-24T03:33:14;10.60;99.90
20735;DHT22;10528;52.124;5.196;2023-04-24T03:35:52;10.70;99.90
20735;DHT22;10528;52.124;5.196;2023-04-24T03:38:19;10.70;99.90
20735;DHT22;10528;52.124;5.196;2023-04-24T03:40:52;10.70;99.90
20735;DHT22;10528;52.124;5.196;2023-04-24T03:43:39;10.60;99.90
20735;DHT22;10528;52.124;5.196;2023-04-24T03:46:06;10.50;99.90
20735;DHT22;10528;52.124;5.196;2023-04-24T03:48:39;10.50;99.90
20735;DHT22;10528;52.124;5.196;2023-04-24T03:51:08;10.50;99.90
20735;DHT22;10528;52.124;5.196;2023-04-24T03:53:37;10.50;99.90
20735;DHT22;10528;52.124;5.196;2023-04-24T03:56:04;10.50;99.90
20735;DHT22;10528;52.124;5.196;2023-04-24T03:58:32;10.60;99.90
20735;DHT22;10528;52.124;5.196;2023-04-24T04:00:59;10.50;99.90
20735;DHT22;10528;52.124;5.196;2023-04-24T04:03:49;10.50;99.90
20735;DHT22;10528;52.124;5.196;2023-04-24T04:06:19;10.60;99.90
20735;DHT22;10528;52.124;5.196;2023-04-24T04:08:48;10.60;99.90
20735;DHT22;10528;52.124;5.196;2023-04-24T04:11:15;10.60;99.90
20735;DHT22;10528;52.124;5.196;2023-04-24T04:13:44;10.60;99.90
20735;DHT22;10528;52.124;5.196;2023-04-24T04:16:12;10.60;99.90
20735;DHT22;10528;52.124;5.196;2023-04-24T04:18:39;10.60;99.90
20735;DHT22;10528;52.124;5.196;2023-04-24T04:21:07;10.60;99.90
20735;DHT22;10528;52.124;5.196;2023-04-24T04:23:34;10.60;99.90
20735;DHT22;10528;52.124;5.196;2023-04-24T04:26:11;10.60;99.90
20735;DHT22;10528;52.124;5.196;2023-04-24T04:28:59;10.60;99.90
20735;DHT22;10528;52.124;5.196;2023-04-24T04:31:31;10.60;99.90
20735;DHT22;10528;52.124;5.196;2023-04-24T04:34:01;10.60;99.90
20735;DHT22;10528;52.124;5.196;2023-04-24T04:36:31;10.60;99.90
20735;DHT22;10528;52.124;5.196;2023-04-24T04:39:06;10.60;99.90
20735;DHT22;10528;52.124;5.196;2023-04-24T04:41:46;10.60;99.90
20735;DHT22;10528;52.124;5.196;2023-04-24T04:44:16;10.60;99.90
20735;DHT22;10528;52.124;5.196;2023-04-24T04:46:44;10.60;99.90
20735;DHT22;10528;52.124;5.196;2023-04-24T04:49:34;10.70;99.90
20735;DHT22;10528;52.124;5.196;2023-04-24T04:52:04;10.60;99.90
20735;DHT22;10528;52.124;5.196;2023-04-24T04:54:31;10.60;99.90
20735;DHT22;10528;52.124;5.196;2023-04-24T04:56:58;10.70;99.90
20735;DHT22;10528;52.124;5.196;2023-04-24T04:59:25;10.60;99.90
20735;DHT22;10528;52.124;5.196;2023-04-24T05:01:59;10.60;99.90
20735;DHT22;10528;52.124;5.196;2023-04-24T05:04:26;10.60;99.90
20735;DHT22;10528;52.124;5.196;2023-04-24T05:06:53;10.60;99.90
20735;DHT22;10528;52.124;5.196;2023-04-24T05:09:22;10.60;99.90
20735;DHT22;10528;52.124;5.196;2023-04-24T05:11:53;10.60;99.90
20735;DHT22;10528;52.124;5.196;2023-04-24T05:14:22;10.60;99.90
20735;DHT22;10528;52.124;5.196;2023-04-24T05:16:49;10.70;99.90
20735;DHT22;10528;52.124;5.196;2023-04-24T05:19:19;10.60;99.90
20735;DHT22;10528;52.124;5.196;2023-04-24T05:21:46;10.50;99.90
20735;DHT22;10528;52.124;5.196;2023-04-24T05:24:13;10.50;99.90
20735;DHT22;10528;52.124;5.196;2023-04-24T05:27:13;10.40;99.90
20735;DHT22;10528;52.124;5.196;2023-04-24T05:29:40;10.40;99.90
20735;DHT22;10528;52.124;5.196;2023-04-24T05:32:08;10.40;99.90
20735;DHT22;10528;52.124;5.196;2023-04-24T05:34:35;10.30;99.90
20735;DHT22;10528;52.124;5.196;2023-04-24T05:37:02;10.30;99.90
20735;DHT22;10528;52.124;5.196;2023-04-24T05:39:30;10.30;99.90
20735;DHT22;10528;52.124;5.196;2023-04-24T05:41:58;10.30;99.90
20735;DHT22;10528;52.124;5.196;2023-04-24T05:44:25;10.30;99.90
20735;DHT22;10528;52.124;5.196;2023-04-24T05:46:52;10.30;99.90
20735;DHT22;10528;52.124;5.196;2023-04-24T05:49:20;10.30;99.90
20735;DHT22;10528;52.124;5.196;2023-04-24T05:51:47;10.30;99.90
20735;DHT22;10528;52.124;5.196;2023-04-24T05:54:15;10.30;99.90
20735;DHT22;10528;52.124;5.196;2023-04-24T05:56:42;10.30;99.90
20735;DHT22;10528;52.124;5.196;2023-04-24T05:59:13;10.30;99.90
20735;DHT22;10528;52.124;5.196;2023-04-24T06:01:40;10.30;99.90
20735;DHT22;10528;52.124;5.196;2023-04-24T06:04:13;10.30;99.90
20735;DHT22;10528;52.124;5.196;2023-04-24T06:06:40;10.20;99.90
20735;DHT22;10528;52.124;5.196;2023-04-24T06:09:08;10.30;99.90
20735;DHT22;10528;52.124;5.196;2023-04-24T06:11:35;10.30;99.90
20735;DHT22;10528;52.124;5.196;2023-04-24T06:14:02;10.30;99.90
20735;DHT22;10528;52.124;5.196;2023-04-24T06:16:40;10.20;99.90
20735;DHT22;10528;52.124;5.196;2023-04-24T06:19:21;10.60;99.90
20735;DHT22;10528;52.124;5.196;2023-04-24T06:21:48;10.50;99.90
20735;DHT22;10528;52.124;5.196;2023-04-24T06:24:15;10.40;99.90
20735;DHT22;10528;52.124;5.196;2023-04-24T06:26:43;10.50;99.90
20735;DHT22;10528;52.124;5.196;2023-04-24T06:29:09;10.40;99.90
20735;DHT22;10528;52.124;5.196;2023-04-24T06:31:36;10.40;99.90
20735;DHT22;10528;52.124;5.196;2023-04-24T06:34:04;10.50;99.90
20735;DHT22;10528;52.124;5.196;2023-04-24T06:36:31;10.40;99.90
20735;DHT22;10528;52.124;5.196;2023-04-24T06:38:59;10.30;99.90
20735;DHT22;10528;52.124;5.196;2023-04-24T06:41:25;10.40;99.90
20735;DHT22;10528;52.124;5.196;2023-04-24T06:43:52;10.30;99.90
20735;DHT22;10528;52.124;5.196;2023-04-24T06:46:19;10.30;99.90
20735;DHT22;10528;52.124;5.196;2023-04-24T06:48:49;10.30;99.90
20735;DHT22;10528;52.124;5.196;2023-04-24T06:51:17;10.40;99.90
20735;DHT22;10528;52.124;5.196;2023-04-24T06:53:44;10.40;99.90
20735;DHT22;10528;52.124;5.196;2023-04-24T06:56:13;10.30;99.90
20735;DHT22;10528;52.124;5.196;2023-04-24T06:58:40;10.20;99.90
20735;DHT22;10528;52.124;5.196;2023-04-24T07:01:07;10.10;99.90
20735;DHT22;10528;52.124;5.196;2023-04-24T07:03:34;10.20;99.90
20735;DHT22;10528;52.124;5.196;2023-04-24T07:06:02;10.10;99.90
20735;DHT22;10528;52.124;5.196;2023-04-24T07:08:29;10.10;99.90
20735;DHT22;10528;52.124;5.196;2023-04-24T07:10:59;10.10;99.90
20735;DHT22;10528;52.124;5.196;2023-04-24T07:13:27;10.10;99.90
20735;DHT22;10528;52.124;5.196;2023-04-24T07:15:54;10.00;99.90
20735;DHT22;10528;52.124;5.196;2023-04-24T07:18:22;10.10;99.90
20735;DHT22;10528;52.124;5.196;2023-04-24T07:20:49;10.10;99.90
20735;DHT22;10528;52.124;5.196;2023-04-24T07:23:19;10.10;99.90
20735;DHT22;10528;52.124;5.196;2023-04-24T07:25:46;10.10;99.90
20735;DHT22;10528;52.124;5.196;2023-04-24T07:28:13;10.00;99.90
20735;DHT22;10528;52.124;5.196;2023-04-24T07:30:40;10.00;99.90
20735;DHT22;10528;52.124;5.196;2023-04-24T07:33:07;10.00;99.90
20735;DHT22;10528;52.124;5.196;2023-04-24T07:35:34;10.10;99.90
20735;DHT22;10528;52.124;5.196;2023-04-24T07:38:01;10.10;99.90
20735;DHT22;10528;52.124;5.196;2023-04-24T07:40:28;10.10;99.90
20735;DHT22;10528;52.124;5.196;2023-04-24T07:42:55;10.10;99.90
20735;DHT22;10528;52.124;5.196;2023-04-24T07:45:22;10.00;99.90
20735;DHT22;10528;52.124;5.196;2023-04-24T07:47:50;10.10;99.90
20735;DHT22;10528;52.124;5.196;2023-04-24T07:50:17;10.10;99.90
20735;DHT22;10528;52.124;5.196;2023-04-24T07:52:44;10.00;99.90
20735;DHT22;10528;52.124;5.196;2023-04-24T07:55:11;10.00;99.90
20735;DHT22;10528;52.124;5.196;2023-04-24T07:57:38;10.10;99.90
20735;DHT22;10528;52.124;5.196;2023-04-24T08:00:05;10.20;99.90
20735;DHT22;10528;52.124;5.196;2023-04-24T08:02:39;10.10;99.90
20735;DHT22;10528;52.124;5.196;2023-04-24T08:05:06;10.10;99.90
20735;DHT22;10528;52.124;5.196;2023-04-24T08:07:33;10.10;99.90
20735;DHT22;10528;52.124;5.196;2023-04-24T08:10:02;10.20;99.90
20735;DHT22;10528;52.124;5.196;2023-04-24T08:12:29;10.10;99.90
20735;DHT22;10528;52.124;5.196;2023-04-24T08:14:56;10.20;99.90
20735;DHT22;10528;52.124;5.196;2023-04-24T08:17:24;10.20;99.90
20735;DHT22;10528;52.124;5.196;2023-04-24T08:19:51;10.10;99.90
20735;DHT22;10528;52.124;5.196;2023-04-24T08:22:19;10.10;99.90
20735;DHT22;10528;52.124;5.196;2023-04-24T08:24:46;10.10;99.90
20735;DHT22;10528;52.124;5.196;2023-04-24T08:27:13;10.20;99.90
20735;DHT22;10528;52.124;5.196;2023-04-24T08:29:40;10.20;99.90
20735;DHT22;10528;52.124;5.196;2023-04-24T08:32:07;10.30;99.90
20735;DHT22;10528;52.124;5.196;2023-04-24T08:34:34;10.20;99.90
20735;DHT22;10528;52.124;5.196;2023-04-24T08:37:01;10.10;99.90
20735;DHT22;10528;52.124;5.196;2023-04-24T08:39:28;10.10;99.90
20735;DHT22;10528;52.124;5.196;2023-04-24T08:41:55;10.10;99.90
20735;DHT22;10528;52.124;5.196;2023-04-24T08:44:22;10.10;99.90
20735;DHT22;10528;52.124;5.196;2023-04-24T08:46:49;10.20;99.90
20735;DHT22;10528;52.124;5.196;2023-04-24T08:49:18;10.30;99.90
20735;DHT22;10528;52.124;5.196;2023-04-24T08:51:46;10.20;99.90
20735;DHT22;10528;52.124;5.196;2023-04-24T08:54:14;10.30;99.90
20735;DHT22;10528;52.124;5.196;2023-04-24T08:56:43;10.40;99.90
20735;DHT22;10528;52.124;5.196;2023-04-24T08:59:11;10.30;99.90
20735;DHT22;10528;52.124;5.196;2023-04-24T09:01:40;10.40;99.90
20735;DHT22;10528;52.124;5.196;2023-04-24T09:04:08;10.40;99.90
20735;DHT22;10528;52.124;5.196;2023-04-24T09:06:38;10.50;99.90
20735;DHT22;10528;52.124;5.196;2023-04-24T09:09:06;10.50;99.90
20735;DHT22;10528;52.124;5.196;2023-04-24T09:11:34;10.60;99.90
20735;DHT22;10528;52.124;5.196;2023-04-24T09:14:02;10.70;99.90
20735;DHT22;10528;52.124;5.196;2023-04-24T09:16:30;10.60;99.90
20735;DHT22;10528;52.124;5.196;2023-04-24T09:19:02;10.70;99.90
20735;DHT22;10528;52.124;5.196;2023-04-24T09:21:33;10.60;99.90
20735;DHT22;10528;52.124;5.196;2023-04-24T09:24:07;10.60;99.90
20735;DHT22;10528;52.124;5.196;2023-04-24T09:26:40;10.70;99.90
20735;DHT22;10528;52.124;5.196;2023-04-24T09:29:17;10.80;99.90
20735;DHT22;10528;52.124;5.196;2023-04-24T09:31:45;10.70;99.90
20735;DHT22;10528;52.124;5.196;2023-04-24T09:34:13;10.70;99.90
20735;DHT22;10528;52.124;5.196;2023-04-24T09:36:42;10.80;99.90
20735;DHT22;10528;52.124;5.196;2023-04-24T09:39:12;10.80;99.90
20735;DHT22;10528;52.124;5.196;2023-04-24T09:41:51;10.80;99.90
20735;DHT22;10528;52.124;5.196;2023-04-24T09:44:21;10.60;99.90
20735;DHT22;10528;52.124;5.196;2023-04-24T09:46:56;10.60;99.90
20735;DHT22;10528;52.124;5.196;2023-04-24T09:49:31;10.70;99.90
20735;DHT22;10528;52.124;5.196;2023-04-24T09:52:07;10.70;99.90
20735;DHT22;10528;52.124;5.196;2023-04-24T09:54:39;10.80;99.90
20735;DHT22;10528;52.124;5.196;2023-04-24T09:57:09;11.30;99.90
20735;DHT22;10528;52.124;5.196;2023-04-24T09:59:42;11.00;99.90
20735;DHT22;10528;52.124;5.196;2023-04-24T10:02:19;11.10;99.90
20735;DHT22;10528;52.124;5.196;2023-04-24T10:04:56;11.30;99.90
20735;DHT22;10528;52.124;5.196;2023-04-24T10:07:26;11.40;99.90
20735;DHT22;10528;52.124;5.196;2023-04-24T10:09:54;11.30;99.90
20735;DHT22;10528;52.124;5.196;2023-04-24T10:12:21;11.30;99.90
20735;DHT22;10528;52.124;5.196;2023-04-24T10:14:49;11.30;99.90
20735;DHT22;10528;52.124;5.196;2023-04-24T10:17:17;11.10;99.90
20735;DHT22;10528;52.124;5.196;2023-04-24T10:19:47;10.90;99.90
20735;DHT22;10528;52.124;5.196;2023-04-24T10:22:15;10.80;99.90
20735;DHT22;10528;52.124;5.196;2023-04-24T10:24:45;10.90;99.90
20735;DHT22;10528;52.124;5.196;2023-04-24T10:27:13;11.20;99.90
20735;DHT22;10528;52.124;5.196;2023-04-24T10:29:43;11.20;99.90
20735;DHT22;10528;52.124;5.196;2023-04-24T10:32:11;11.40;99.90
20735;DHT22;10528;52.124;5.196;2023-04-24T10:34:38;11.70;99.90
20735;DHT22;10528;52.124;5.196;2023-04-24T10:37:05;11.60;99.90
20735;DHT22;10528;52.124;5.196;2023-04-24T10:39:33;11.60;99.90
20735;DHT22;10528;52.124;5.196;2023-04-24T10:42:00;11.70;99.90
20735;DHT22;10528;52.124;5.196;2023-04-24T10:44:36;11.70;99.90
20735;DHT22;10528;52.124;5.196;2023-04-24T10:47:03;11.70;99.90
20735;DHT22;10528;52.124;5.196;2023-04-24T10:49:31;11.70;99.90
20735;DHT22;10528;52.124;5.196;2023-04-24T10:52:03;12.20;99.90
20735;DHT22;10528;52.124;5.196;2023-04-24T11:02:52;11.70;99.90
20735;DHT22;10528;52.124;5.196;2023-04-24T11:05:21;11.70;99.90
20735;DHT22;10528;52.124;5.196;2023-04-24T11:08:11;11.80;99.90
20735;DHT22;10528;52.124;5.196;2023-04-24T11:14:00;11.00;99.90
20735;DHT22;10528;52.124;5.196;2023-04-24T11:16:32;10.90;99.90
20735;DHT22;10528;52.124;5.196;2023-04-24T11:19:21;11.00;99.90
20735;DHT22;10528;52.124;5.196;2023-04-24T11:22:02;11.20;99.90
20735;DHT22;10528;52.124;5.196;2023-04-24T11:24:39;11.70;99.90
20735;DHT22;10528;52.124;5.196;2023-04-24T11:27:21;11.80;99.90
20735;DHT22;10528;52.124;5.196;2023-04-24T11:32:29;11.60;99.90
20735;DHT22;10528;52.124;5.196;2023-04-24T11:35:06;11.70;99.90
20735;DHT22;10528;52.124;5.196;2023-04-24T11:40:04;12.00;99.90
20735;DHT22;10528;52.124;5.196;2023-04-24T11:42:40;12.00;99.90
20735;DHT22;10528;52.124;5.196;2023-04-24T11:45:14;12.20;99.90
20735;DHT22;10528;52.124;5.196;2023-04-24T11:47:43;12.50;99.90
20735;DHT22;10528;52.124;5.196;2023-04-24T11:50:12;12.70;99.90
20735;DHT22;10528;52.124;5.196;2023-04-24T11:52:45;13.10;99.90
20735;DHT22;10528;52.124;5.196;2023-04-24T11:57:47;12.60;99.90
20735;DHT22;10528;52.124;5.196;2023-04-24T12:00:18;12.40;99.90
20735;DHT22;10528;52.124;5.196;2023-04-24T12:02:47;12.20;99.90
20735;DHT22;10528;52.124;5.196;2023-04-24T12:05:27;11.90;99.90
20735;DHT22;10528;52.124;5.196;2023-04-24T12:07:54;11.90;99.90
20735;DHT22;10528;52.124;5.196;2023-04-24T12:10:26;12.20;99.90
20735;DHT22;10528;52.124;5.196;2023-04-24T12:12:56;12.20;99.90
20735;DHT22;10528;52.124;5.196;2023-04-24T12:15:25;12.60;99.90
20735;DHT22;10528;52.124;5.196;2023-04-24T12:17:54;12.70;99.90
20735;DHT22;10528;52.124;5.196;2023-04-24T12:22:57;12.90;99.90
20735;DHT22;10528;52.124;5.196;2023-04-24T12:25:26;13.20;99.90
20735;DHT22;10528;52.124;5.196;2023-04-24T12:30:33;12.60;99.90
20735;DHT22;10528;52.124;5.196;2023-04-24T12:33:02;12.30;99.90
20735;DHT22;10528;52.124;5.196;2023-04-24T12:35:31;12.40;99.90
20735;DHT22;10528;52.124;5.196;2023-04-24T12:38:11;12.40;99.90
20735;DHT22;10528;52.124;5.196;2023-04-24T12:40:40;12.10;99.90
20735;DHT22;10528;52.124;5.196;2023-04-24T12:43:16;12.10;99.90
20735;DHT22;10528;52.124;5.196;2023-04-24T12:45:44;12.10;99.90
20735;DHT22;10528;52.124;5.196;2023-04-24T12:48:12;12.00;99.90
20735;DHT22;10528;52.124;5.196;2023-04-24T12:50:40;12.20;99.90
20735;DHT22;10528;52.124;5.196;2023-04-24T12:53:12;12.00;99.90
20735;DHT22;10528;52.124;5.196;2023-04-24T12:55:39;12.30;99.90
20735;DHT22;10528;52.124;5.196;2023-04-24T12:58:07;12.10;99.90
20735;DHT22;10528;52.124;5.196;2023-04-24T13:00:34;11.80;99.90
20735;DHT22;10528;52.124;5.196;2023-04-24T13:03:01;11.70;99.90
20735;DHT22;10528;52.124;5.196;2023-04-24T13:05:29;11.60;99.90
20735;DHT22;10528;52.124;5.196;2023-04-24T13:07:57;12.10;99.90
20735;DHT22;10528;52.124;5.196;2023-04-24T13:10:24;12.00;99.90
20735;DHT22;10528;52.124;5.196;2023-04-24T13:12:51;12.10;99.90
20735;DHT22;10528;52.124;5.196;2023-04-24T13:15:18;12.00;99.90
20735;DHT22;10528;52.124;5.196;2023-04-24T13:17:45;12.30;99.90
20735;DHT22;10528;52.124;5.196;2023-04-24T13:20:12;12.20;99.90
20735;DHT22;10528;52.124;5.196;2023-04-24T13:22:39;12.20;99.90
20735;DHT22;10528;52.124;5.196;2023-04-24T13:25:06;12.10;99.90
20735;DHT22;10528;52.124;5.196;2023-04-24T13:27:33;12.10;99.90
20735;DHT22;10528;52.124;5.196;2023-04-24T13:30:00;11.90;99.90
20735;DHT22;10528;52.124;5.196;2023-04-24T13:32:27;11.90;99.90
20735;DHT22;10528;52.124;5.196;2023-04-24T13:34:56;12.00;99.90
20735;DHT22;10528;52.124;5.196;2023-04-24T13:37:23;12.00;99.90
20735;DHT22;10528;52.124;5.196;2023-04-24T13:39:50;12.10;99.90
20735;DHT22;10528;52.124;5.196;2023-04-24T13:42:18;12.10;99.90
20735;DHT22;10528;52.124;5.196;2023-04-24T13:44:45;12.20;99.90
20735;DHT22;10528;52.124;5.196;2023-04-24T13:47:12;12.30;99.90
20735;DHT22;10528;52.124;5.196;2023-04-24T13:49:38;12.40;99.90
20735;DHT22;10528;52.124;5.196;2023-04-24T13:52:06;12.60;99.90
20735;DHT22;10528;52.124;5.196;2023-04-24T13:54:33;12.80;99.90
20735;DHT22;10528;52.124;5.196;2023-04-24T13:57:00;13.10;99.90
20735;DHT22;10528;52.124;5.196;2023-04-24T13:59:29;12.90;99.90
20735;DHT22;10528;52.124;5.196;2023-04-24T14:01:56;13.00;99.90
20735;DHT22;10528;52.124;5.196;2023-04-24T14:04:23;12.90;99.90
20735;DHT22;10528;52.124;5.196;2023-04-24T14:06:50;12.80;99.90
20735;DHT22;10528;52.124;5.196;2023-04-24T14:09:17;12.90;99.90
20735;DHT22;10528;52.124;5.196;2023-04-24T14:11:44;12.70;99.90
20735;DHT22;10528;52.124;5.196;2023-04-24T14:14:11;12.60;99.90
20735;DHT22;10528;52.124;5.196;2023-04-24T14:16:38;13.00;99.90
20735;DHT22;10528;52.124;5.196;2023-04-24T14:19:05;12.90;99.90
20735;DHT22;10528;52.124;5.196;2023-04-24T14:21:33;13.10;99.90
20735;DHT22;10528;52.124;5.196;2023-04-24T14:24:00;13.30;99.90
20735;DHT22;10528;52.124;5.196;2023-04-24T14:26:27;13.50;99.90
20735;DHT22;10528;52.124;5.196;2023-04-24T14:28:54;13.40;99.90
20735;DHT22;10528;52.124;5.196;2023-04-24T14:31:39;13.60;99.90
20735;DHT22;10528;52.124;5.196;2023-04-24T14:34:06;13.20;99.90
20735;DHT22;10528;52.124;5.196;2023-04-24T14:36:33;13.10;99.90
20735;DHT22;10528;52.124;5.196;2023-04-24T14:39:00;13.10;99.90
20735;DHT22;10528;52.124;5.196;2023-04-24T14:41:32;13.10;99.90
20735;DHT22;10528;52.124;5.196;2023-04-24T14:44:05;13.00;99.90
20735;DHT22;10528;52.124;5.196;2023-04-24T14:46:32;12.80;99.90
20735;DHT22;10528;52.124;5.196;2023-04-24T14:48:59;12.50;99.90
20735;DHT22;10528;52.124;5.196;2023-04-24T14:51:26;12.50;99.90
20735;DHT22;10528;52.124;5.196;2023-04-24T14:53:53;12.70;99.90
20735;DHT22;10528;52.124;5.196;2023-04-24T14:56:20;12.70;99.90
20735;DHT22;10528;52.124;5.196;2023-04-24T14:58:47;12.50;99.90
20735;DHT22;10528;52.124;5.196;2023-04-24T15:01:14;12.30;99.90
20735;DHT22;10528;52.124;5.196;2023-04-24T15:03:43;12.10;99.90
20735;DHT22;10528;52.124;5.196;2023-04-24T15:06:11;11.80;99.90
20735;DHT22;10528;52.124;5.196;2023-04-24T15:08:38;11.70;99.90
20735;DHT22;10528;52.124;5.196;2023-04-24T15:11:05;11.70;99.90
20735;DHT22;10528;52.124;5.196;2023-04-24T15:13:32;12.00;99.90
20735;DHT22;10528;52.124;5.196;2023-04-24T15:15:59;11.80;99.90
20735;DHT22;10528;52.124;5.196;2023-04-24T15:18:26;11.80;99.90
20735;DHT22;10528;52.124;5.196;2023-04-24T15:20:54;12.10;99.90
20735;DHT22;10528;52.124;5.196;2023-04-24T15:23:21;11.80;99.90
20735;DHT22;10528;52.124;5.196;2023-04-24T15:25:48;11.80;99.90
20735;DHT22;10528;52.124;5.196;2023-04-24T15:28:15;11.90;99.90
20735;DHT22;10528;52.124;5.196;2023-04-24T15:30:44;11.90;99.90
20735;DHT22;10528;52.124;5.196;2023-04-24T15:33:11;12.10;99.90
20735;DHT22;10528;52.124;5.196;2023-04-24T15:35:38;11.80;99.90
20735;DHT22;10528;52.124;5.196;2023-04-24T15:38:05;11.80;99.90
20735;DHT22;10528;52.124;5.196;2023-04-24T15:40:32;11.60;99.90
20735;DHT22;10528;52.124;5.196;2023-04-24T15:42:58;11.70;99.90
20735;DHT22;10528;52.124;5.196;2023-04-24T15:45:25;11.60;99.90
20735;DHT22;10528;52.124;5.196;2023-04-24T15:47:52;11.50;99.90
20735;DHT22;10528;52.124;5.196;2023-04-24T15:50:20;11.70;99.90
20735;DHT22;10528;52.124;5.196;2023-04-24T15:52:48;11.90;99.90
20735;DHT22;10528;52.124;5.196;2023-04-24T15:55:15;11.80;99.90
20735;DHT22;10528;52.124;5.196;2023-04-24T15:57:42;11.80;99.90
20735;DHT22;10528;52.124;5.196;2023-04-24T16:00:09;11.70;99.90
20735;DHT22;10528;52.124;5.196;2023-04-24T16:02:37;11.80;99.90
20735;DHT22;10528;52.124;5.196;2023-04-24T16:05:04;11.80;99.90